This is the latest recevied weather packets stored in our database for station/object N3SBK. If no packets are shown the sender has not sent any weather packets the latest 10 day(s).
| Time | Temp. | Humidity | Pressure | Rain* | Wind** | Luminosity | Snow |
|---|---|---|---|---|---|---|---|
| 1787412422 | 23.89° C | 71% | 1006.9 hPa | 0 mm | - | 629 W/m² | - |
| 1787412118 | 24.44° C | 70% | 1007 hPa | 0 mm | - | 98 W/m² | - |
| 1787411815 | 24.44° C | 71% | 1007 hPa | 0 mm | - | 116 W/m² | - |
| 1787411510 | 23.89° C | 74% | 1007.1 hPa | 0 mm | - | 600 W/m² | - |
| 1787411206 | 21.67° C | 80% | 1006.9 hPa | 0 mm | - | 530 W/m² | - |
| 1787410902 | 21.67° C | 80% | 1007.1 hPa | 0 mm | - | 530 W/m² | - |
| 1787410597 | 21.67° C | 79% | 1007.2 hPa | 0 mm | - | 177 W/m² | - |
| 1787410291 | 21.67° C | 82% | 1007.4 hPa | 0 mm | - | 56 W/m² | - |
| 1787409989 | 21.67° C | 80% | 1007.4 hPa | 0 mm | - | 49 W/m² | - |
| 1787409684 | 21.11° C | 81% | 1007.5 hPa | 0 mm | - | 48 W/m² | - |
| 1787409380 | 20.56° C | 82% | 1007.5 hPa | 0 mm | - | 45 W/m² | - |
| 1787409075 | 19.44° C | 85% | 1007.5 hPa | 0 mm | - | 36 W/m² | - |
| 1787408771 | 19.44° C | 85% | 1007.5 hPa | 0 mm | - | 36 W/m² | - |
| 1787408466 | 19.44° C | 85% | 1007.7 hPa | 0 mm | - | 36 W/m² | - |
| 1787408161 | 19.44° C | 85% | 1007.7 hPa | 0 mm | - | 36 W/m² | - |
| 1787407857 | 19.44° C | 85% | 1007.7 hPa | 0 mm | - | 36 W/m² | - |
| 1787407552 | 19.44° C | 85% | 1007.8 hPa | 0 mm | - | 36 W/m² | - |
| 1787407252 | 19.44° C | 85% | 1007.4 hPa | 0 mm | - | 36 W/m² | - |
| 1787406948 | 18.89° C | 87% | 1007.8 hPa | 0 mm | - | 35 W/m² | - |
| 1787406644 | 18.89° C | 90% | 1008 hPa | 0 mm | - | 34 W/m² | - |
| 1787406339 | 17.78° C | 90% | 1007.8 hPa | 0 mm | - | 35 W/m² | - |
| 1787406035 | 17.78° C | 90% | 1008 hPa | 0 mm | - | 37 W/m² | - |
| 1787405731 | 17.78° C | 91% | 1007.7 hPa | 0 mm | - | 40 W/m² | - |
| 1787405427 | 17.22° C | 91% | 1008 hPa | 0 mm | - | 60 W/m² | - |
| 1787405122 | 17.22° C | 92% | 1007.9 hPa | 0 mm | - | 62 W/m² | - |
* Rain latest hour (hover to see other rain measurements)
** Current wind speed in m/s (hover to see current wind gust speed)